DLH205 KDEN-CYVR
Flight info
| Callsign | DLH205 |
|---|---|
| Flight time | N/A |
| Altitude | 38000 |
| Route | DDRTH1 DDRTH DCT DBS DCT LKT DCT METOW GRIZZ9 |
| Aircraft | A388/J-SADE2E3FGHIJ3J4J5M1RWXY/LB1D1 |
Departure
| Time | N/A |
|---|---|
| Airport | Denver International Airport (KDEN) |
Arrival
| Time | 2026-05-03 22:24 |
|---|---|
| Airport | Vancouver International Airport (CYVR) |
| Time | Latitude | Longitude | Altitude | Speed | Heading |
|---|---|---|---|---|---|
| 2026-05-03 21:02 | 44.24646 | -111.33620 | 38017 ft | 506 kts | 305° |
| 2026-05-03 21:02 | 44.26685 | -111.37593 | 38019 ft | 506 kts | 305° |
| 2026-05-03 21:02 | 44.30760 | -111.45552 | 38017 ft | 507 kts | 305° |
| 2026-05-03 21:03 | 44.34827 | -111.53518 | 38022 ft | 507 kts | 305° |
| 2026-05-03 21:03 | 44.38904 | -111.61526 | 38036 ft | 507 kts | 305° |
| 2026-05-03 21:04 | 44.42967 | -111.69529 | 38054 ft | 507 kts | 304° |
| 2026-05-03 21:04 | 44.47019 | -111.77532 | 38067 ft | 507 kts | 304° |
| 2026-05-03 21:05 | 44.51083 | -111.85579 | 38074 ft | 507 kts | 304° |
| 2026-05-03 21:05 | 44.55125 | -111.93608 | 38054 ft | 507 kts | 304° |
| 2026-05-03 21:06 | 44.59163 | -112.01649 | 38030 ft | 508 kts | 304° |
| 2026-05-03 21:06 | 44.63206 | -112.09723 | 38011 ft | 509 kts | 305° |
| 2026-05-03 21:07 | 44.67262 | -112.17845 | 38008 ft | 508 kts | 305° |
| 2026-05-03 21:07 | 44.71299 | -112.25954 | 38009 ft | 509 kts | 305° |
| 2026-05-03 21:08 | 44.75338 | -112.34088 | 38008 ft | 510 kts | 305° |
| 2026-05-03 21:08 | 44.79387 | -112.42267 | 38007 ft | 510 kts | 305° |
| 2026-05-03 21:09 | 44.83417 | -112.50429 | 38007 ft | 510 kts | 305° |
| 2026-05-03 21:09 | 44.87448 | -112.58616 | 38007 ft | 512 kts | 305° |
| 2026-05-03 21:10 | 44.91484 | -112.66839 | 38008 ft | 513 kts | 304° |
| 2026-05-03 21:10 | 44.95531 | -112.75105 | 38009 ft | 513 kts | 305° |
| 2026-05-03 21:11 | 44.99559 | -112.83358 | 38012 ft | 513 kts | 305° |
| 2026-05-03 21:11 | 45.03581 | -112.91621 | 38053 ft | 513 kts | 305° |
| 2026-05-03 21:12 | 45.07611 | -112.99926 | 38111 ft | 513 kts | 305° |
| 2026-05-03 21:12 | 45.11637 | -113.08246 | 38181 ft | 517 kts | 305° |
| 2026-05-03 21:13 | 45.15681 | -113.16629 | 38185 ft | 519 kts | 305° |
| 2026-05-03 21:13 | 45.19726 | -113.25037 | 38184 ft | 519 kts | 305° |
| 2026-05-03 21:14 | 45.23776 | -113.33482 | 38183 ft | 520 kts | 305° |
| 2026-05-03 21:14 | 45.27834 | -113.41965 | 38183 ft | 521 kts | 305° |
| 2026-05-03 21:15 | 45.31880 | -113.50454 | 38184 ft | 522 kts | 305° |
| 2026-05-03 21:15 | 45.35921 | -113.58957 | 38183 ft | 522 kts | 306° |
| 2026-05-03 21:16 | 45.39979 | -113.67516 | 38183 ft | 523 kts | 305° |
| 2026-05-03 21:16 | 45.44018 | -113.76067 | 38185 ft | 523 kts | 305° |
| 2026-05-03 21:17 | 45.48054 | -113.84632 | 38157 ft | 524 kts | 305° |
| 2026-05-03 21:17 | 45.52092 | -113.93230 | 38116 ft | 525 kts | 305° |
| 2026-05-03 21:18 | 45.56139 | -114.01875 | 38075 ft | 525 kts | 305° |
| 2026-05-03 21:18 | 45.60173 | -114.10513 | 38036 ft | 526 kts | 305° |
| 2026-05-03 21:19 | 45.64200 | -114.19166 | 38027 ft | 526 kts | 305° |
| 2026-05-03 21:19 | 45.68234 | -114.27862 | 38027 ft | 526 kts | 305° |
| 2026-05-03 21:20 | 45.72249 | -114.36540 | 38027 ft | 526 kts | 305° |
| 2026-05-03 21:20 | 45.76258 | -114.45235 | 38026 ft | 526 kts | 305° |
| 2026-05-03 21:21 | 45.80259 | -114.53936 | 38026 ft | 526 kts | 305° |
| 2026-05-03 21:21 | 45.84267 | -114.62685 | 38026 ft | 526 kts | 305° |
| 2026-05-03 21:22 | 45.88262 | -114.71429 | 38026 ft | 526 kts | 304° |
| 2026-05-03 21:22 | 45.92245 | -114.80175 | 38026 ft | 526 kts | 304° |
| 2026-05-03 21:23 | 45.96237 | -114.88967 | 38026 ft | 526 kts | 304° |
| 2026-05-03 21:23 | 46.00211 | -114.97747 | 38026 ft | 527 kts | 304° |
| 2026-05-03 21:24 | 46.04171 | -115.06525 | 38027 ft | 526 kts | 305° |
| 2026-05-03 21:24 | 46.08124 | -115.15313 | 38031 ft | 526 kts | 305° |
| 2026-05-03 21:25 | 46.12092 | -115.24162 | 38033 ft | 526 kts | 305° |
| 2026-05-03 21:25 | 46.16036 | -115.32988 | 38023 ft | 527 kts | 305° |
| 2026-05-03 21:26 | 46.19977 | -115.41834 | 38014 ft | 527 kts | 305° |
| 2026-05-03 21:26 | 46.23929 | -115.50732 | 38005 ft | 528 kts | 305° |
| 2026-05-03 21:27 | 46.27864 | -115.59622 | 38002 ft | 528 kts | 305° |
| 2026-05-03 21:27 | 46.31800 | -115.68539 | 38001 ft | 529 kts | 304° |
| 2026-05-03 21:28 | 46.35728 | -115.77468 | 38001 ft | 529 kts | 304° |
| 2026-05-03 21:28 | 46.39663 | -115.86441 | 38000 ft | 529 kts | 304° |
| 2026-05-03 21:29 | 46.43577 | -115.95396 | 38000 ft | 529 kts | 304° |
| 2026-05-03 21:29 | 46.47485 | -116.04368 | 37993 ft | 529 kts | 304° |
| 2026-05-03 21:30 | 46.51403 | -116.13390 | 37986 ft | 529 kts | 304° |
| 2026-05-03 21:30 | 46.55299 | -116.22389 | 37982 ft | 529 kts | 304° |
| 2026-05-03 21:31 | 46.59184 | -116.31394 | 37982 ft | 528 kts | 304° |
| 2026-05-03 21:31 | 46.63059 | -116.40405 | 37982 ft | 528 kts | 304° |
| 2026-05-03 21:32 | 46.66938 | -116.49452 | 37981 ft | 528 kts | 304° |
| 2026-05-03 21:32 | 46.70793 | -116.58481 | 37981 ft | 527 kts | 304° |
| 2026-05-03 21:33 | 46.74644 | -116.67522 | 37982 ft | 527 kts | 303° |
| 2026-05-03 21:33 | 46.78498 | -116.76601 | 37986 ft | 527 kts | 303° |
| 2026-05-03 21:34 | 46.82330 | -116.85661 | 37991 ft | 527 kts | 303° |
| 2026-05-03 21:34 | 46.86154 | -116.94730 | 37994 ft | 527 kts | 303° |
| 2026-05-03 21:35 | 46.89973 | -117.03815 | 37993 ft | 527 kts | 303° |
| 2026-05-03 21:35 | 46.93797 | -117.12946 | 37990 ft | 527 kts | 303° |
| 2026-05-03 21:36 | 46.97598 | -117.22050 | 37989 ft | 527 kts | 303° |
| 2026-05-03 21:36 | 47.01394 | -117.31171 | 37988 ft | 527 kts | 303° |
| 2026-05-03 21:37 | 47.05193 | -117.40334 | 37988 ft | 527 kts | 303° |
| 2026-05-03 21:37 | 47.08971 | -117.49474 | 37988 ft | 527 kts | 303° |
| 2026-05-03 21:38 | 47.12746 | -117.58637 | 37994 ft | 527 kts | 303° |
| 2026-05-03 21:38 | 47.16512 | -117.67810 | 37993 ft | 527 kts | 303° |
| 2026-05-03 21:39 | 47.20279 | -117.77017 | 37993 ft | 526 kts | 303° |
| 2026-05-03 21:39 | 47.24025 | -117.86203 | 37992 ft | 526 kts | 303° |
| 2026-05-03 21:40 | 47.27760 | -117.95391 | 37982 ft | 526 kts | 303° |
| 2026-05-03 21:40 | 47.31500 | -118.04626 | 37971 ft | 526 kts | 303° |
| 2026-05-03 21:41 | 47.35221 | -118.13843 | 37965 ft | 526 kts | 303° |
| 2026-05-03 21:41 | 47.38937 | -118.23077 | 37964 ft | 526 kts | 303° |
| 2026-05-03 21:42 | 47.42641 | -118.32318 | 37964 ft | 526 kts | 303° |
| 2026-05-03 21:42 | 47.46353 | -118.41608 | 37964 ft | 526 kts | 303° |
| 2026-05-03 21:43 | 47.50043 | -118.50873 | 37964 ft | 526 kts | 303° |
| 2026-05-03 21:43 | 47.53732 | -118.60169 | 37964 ft | 526 kts | 303° |
| 2026-05-03 21:44 | 47.57427 | -118.69514 | 37963 ft | 526 kts | 302° |
| 2026-05-03 21:44 | 47.61100 | -118.78832 | 37962 ft | 527 kts | 302° |
| 2026-05-03 21:45 | 47.64560 | -118.87641 | 37961 ft | 527 kts | 302° |
| 2026-05-03 21:45 | 47.68221 | -118.96991 | 37957 ft | 527 kts | 302° |
| 2026-05-03 21:46 | 47.71888 | -119.06393 | 37954 ft | 527 kts | 302° |
| 2026-05-03 21:46 | 47.75532 | -119.15770 | 37953 ft | 527 kts | 302° |
| 2026-05-03 21:47 | 47.79169 | -119.25154 | 37953 ft | 526 kts | 302° |
| 2026-05-03 21:47 | 47.82806 | -119.34577 | 37953 ft | 526 kts | 302° |
| 2026-05-03 21:48 | 47.86419 | -119.43970 | 37953 ft | 526 kts | 302° |
| 2026-05-03 21:48 | 47.90025 | -119.53377 | 37952 ft | 525 kts | 302° |
| 2026-05-03 21:49 | 47.93618 | -119.62787 | 37952 ft | 525 kts | 302° |
| 2026-05-03 21:49 | 47.97216 | -119.72238 | 37951 ft | 524 kts | 301° |
| 2026-05-03 21:50 | 48.00790 | -119.81659 | 37952 ft | 524 kts | 301° |
| 2026-05-03 21:50 | 48.04354 | -119.91090 | 37951 ft | 524 kts | 301° |
| 2026-05-03 21:51 | 48.07922 | -120.00565 | 37951 ft | 524 kts | 301° |
| 2026-05-03 21:51 | 48.11468 | -120.10035 | 37953 ft | 524 kts | 300° |
| 2026-05-03 21:52 | 48.14073 | -120.20185 | 37962 ft | 528 kts | 289° |
| 2026-05-03 21:52 | 48.15062 | -120.25486 | 37632 ft | 535 kts | 287° |
| 2026-05-03 21:52 | 48.16015 | -120.30859 | 37140 ft | 538 kts | 287° |
| 2026-05-03 21:53 | 48.16976 | -120.36285 | 36652 ft | 539 kts | 287° |
| 2026-05-03 21:53 | 48.17932 | -120.41691 | 36163 ft | 540 kts | 287° |
| 2026-05-03 21:53 | 48.18884 | -120.47100 | 35673 ft | 541 kts | 287° |
| 2026-05-03 21:53 | 48.19836 | -120.52522 | 35181 ft | 541 kts | 287° |
| 2026-05-03 21:54 | 48.20785 | -120.57944 | 34686 ft | 540 kts | 287° |
| 2026-05-03 21:54 | 48.21731 | -120.63369 | 34191 ft | 540 kts | 287° |
| 2026-05-03 21:54 | 48.22675 | -120.68789 | 33694 ft | 539 kts | 286° |
| 2026-05-03 21:54 | 48.23620 | -120.74243 | 33195 ft | 539 kts | 286° |
| 2026-05-03 21:55 | 48.24555 | -120.79651 | 32699 ft | 538 kts | 286° |
| 2026-05-03 21:55 | 48.25487 | -120.85057 | 32203 ft | 538 kts | 286° |
| 2026-05-03 21:55 | 48.26407 | -120.90415 | 31662 ft | 525 kts | 286° |
| 2026-05-03 21:55 | 48.27301 | -120.95634 | 31011 ft | 512 kts | 286° |
| 2026-05-03 21:56 | 48.28171 | -121.00725 | 30371 ft | 501 kts | 286° |
| 2026-05-03 21:56 | 48.29023 | -121.05717 | 29736 ft | 492 kts | 286° |
| 2026-05-03 21:56 | 48.29860 | -121.10650 | 29100 ft | 483 kts | 286° |
| 2026-05-03 21:56 | 48.30677 | -121.15473 | 28470 ft | 475 kts | 286° |
| 2026-05-03 21:57 | 48.31479 | -121.20218 | 27841 ft | 468 kts | 286° |
| 2026-05-03 21:57 | 48.32266 | -121.24889 | 27212 ft | 461 kts | 286° |
| 2026-05-03 21:57 | 48.33041 | -121.29501 | 26584 ft | 454 kts | 286° |
| 2026-05-03 21:57 | 48.33802 | -121.34048 | 25959 ft | 448 kts | 286° |
| 2026-05-03 21:58 | 48.34552 | -121.38534 | 25333 ft | 442 kts | 286° |
| 2026-05-03 21:58 | 48.35295 | -121.42994 | 24702 ft | 437 kts | 286° |
| 2026-05-03 21:58 | 48.36022 | -121.47366 | 24076 ft | 431 kts | 286° |
| 2026-05-03 21:58 | 48.36739 | -121.51689 | 23450 ft | 426 kts | 286° |
| 2026-05-03 21:59 | 48.37445 | -121.55963 | 22823 ft | 421 kts | 286° |
| 2026-05-03 21:59 | 48.38143 | -121.60188 | 22196 ft | 416 kts | 286° |
| 2026-05-03 21:59 | 48.38831 | -121.64366 | 21571 ft | 412 kts | 286° |
| 2026-05-03 21:59 | 48.39544 | -121.68481 | 20935 ft | 406 kts | 290° |
| 2026-05-03 22:00 | 48.40692 | -121.72331 | 20304 ft | 400 kts | 300° |
| 2026-05-03 22:00 | 48.42157 | -121.75837 | 19694 ft | 397 kts | 306° |
| 2026-05-03 22:00 | 48.43741 | -121.79187 | 19195 ft | 394 kts | 307° |
| 2026-05-03 22:00 | 48.45331 | -121.82499 | 18699 ft | 391 kts | 307° |
| 2026-05-03 22:01 | 48.46913 | -121.85787 | 18199 ft | 389 kts | 307° |
| 2026-05-03 22:01 | 48.48486 | -121.89058 | 17700 ft | 386 kts | 307° |
| 2026-05-03 22:01 | 48.50047 | -121.92304 | 17200 ft | 384 kts | 307° |
| 2026-05-03 22:01 | 48.51609 | -121.95555 | 16697 ft | 381 kts | 307° |
| 2026-05-03 22:02 | 48.53145 | -121.98758 | 16198 ft | 377 kts | 307° |
| 2026-05-03 22:02 | 48.54669 | -122.01938 | 15698 ft | 375 kts | 307° |
| 2026-05-03 22:02 | 48.56179 | -122.05096 | 15247 ft | 370 kts | 307° |
| 2026-05-03 22:02 | 48.57659 | -122.08192 | 14867 ft | 361 kts | 307° |
| 2026-05-03 22:03 | 48.59031 | -122.11278 | 14469 ft | 352 kts | 300° |
| 2026-05-03 22:03 | 48.60149 | -122.14497 | 14106 ft | 343 kts | 298° |
| 2026-05-03 22:03 | 48.61183 | -122.17702 | 13768 ft | 335 kts | 296° |
| 2026-05-03 22:03 | 48.62147 | -122.20842 | 13430 ft | 327 kts | 296° |
| 2026-05-03 22:04 | 48.63076 | -122.23910 | 13136 ft | 317 kts | 296° |
| 2026-05-03 22:04 | 48.63970 | -122.26886 | 12871 ft | 308 kts | 296° |
| 2026-05-03 22:04 | 48.64839 | -122.29779 | 12603 ft | 299 kts | 296° |
| 2026-05-03 22:04 | 48.65693 | -122.32619 | 12345 ft | 298 kts | 296° |
| 2026-05-03 22:05 | 48.66543 | -122.35458 | 12097 ft | 297 kts | 295° |
| 2026-05-03 22:05 | 48.67394 | -122.38306 | 11992 ft | 295 kts | 295° |
| 2026-05-03 22:05 | 48.68238 | -122.41130 | 12006 ft | 296 kts | 296° |
| 2026-05-03 22:05 | 48.69084 | -122.43963 | 11999 ft | 297 kts | 296° |
| 2026-05-03 22:06 | 48.69928 | -122.46796 | 11999 ft | 297 kts | 296° |
| 2026-05-03 22:06 | 48.70801 | -122.49610 | 11993 ft | 296 kts | 301° |
| 2026-05-03 22:06 | 48.71924 | -122.52199 | 12007 ft | 295 kts | 307° |
| 2026-05-03 22:06 | 48.73138 | -122.54695 | 12001 ft | 296 kts | 308° |
| 2026-05-03 22:07 | 48.74386 | -122.57180 | 12000 ft | 296 kts | 309° |
| 2026-05-03 22:07 | 48.75639 | -122.59640 | 11917 ft | 297 kts | 309° |
| 2026-05-03 22:07 | 48.76894 | -122.62094 | 11525 ft | 294 kts | 309° |
| 2026-05-03 22:07 | 48.78135 | -122.64516 | 11144 ft | 291 kts | 309° |
| 2026-05-03 22:08 | 48.79360 | -122.66907 | 10764 ft | 287 kts | 308° |
| 2026-05-03 22:08 | 48.80571 | -122.69274 | 10384 ft | 284 kts | 308° |
| 2026-05-03 22:08 | 48.81764 | -122.71609 | 10046 ft | 279 kts | 308° |
| 2026-05-03 22:08 | 48.82943 | -122.73919 | 9742 ft | 273 kts | 308° |
| 2026-05-03 22:09 | 48.84086 | -122.76157 | 9479 ft | 266 kts | 308° |
| 2026-05-03 22:09 | 48.85206 | -122.78356 | 9220 ft | 264 kts | 308° |
| 2026-05-03 22:09 | 48.86323 | -122.80549 | 8971 ft | 264 kts | 308° |
| 2026-05-03 22:10 | 48.88554 | -122.84932 | 8473 ft | 263 kts | 308° |
| 2026-05-03 22:10 | 48.89664 | -122.87115 | 8223 ft | 262 kts | 308° |
| 2026-05-03 22:10 | 48.90775 | -122.89303 | 8006 ft | 260 kts | 308° |
| 2026-05-03 22:10 | 48.91875 | -122.91470 | 8003 ft | 260 kts | 308° |
| 2026-05-03 22:11 | 48.92977 | -122.93644 | 8003 ft | 261 kts | 308° |
| 2026-05-03 22:11 | 48.94080 | -122.95821 | 8000 ft | 261 kts | 308° |
| 2026-05-03 22:11 | 48.95367 | -122.97708 | 7983 ft | 260 kts | 333° |
| 2026-05-03 22:11 | 48.97106 | -122.98262 | 7837 ft | 262 kts | 7° |
| 2026-05-03 22:12 | 48.98758 | -122.97294 | 7490 ft | 256 kts | 34° |
| 2026-05-03 22:12 | 49.00185 | -122.95701 | 7139 ft | 253 kts | 37° |
| 2026-05-03 22:12 | 49.01575 | -122.94098 | 6765 ft | 252 kts | 37° |
| 2026-05-03 22:12 | 49.02962 | -122.92501 | 6391 ft | 251 kts | 37° |
| 2026-05-03 22:13 | 49.04341 | -122.90911 | 6017 ft | 249 kts | 37° |
| 2026-05-03 22:13 | 49.05604 | -122.89143 | 5636 ft | 247 kts | 47° |
| 2026-05-03 22:13 | 49.06525 | -122.86984 | 5308 ft | 241 kts | 67° |
| 2026-05-03 22:13 | 49.06734 | -122.84529 | 4985 ft | 234 kts | 95° |
| 2026-05-03 22:14 | 49.06484 | -122.82097 | 4631 ft | 229 kts | 98° |
| 2026-05-03 22:14 | 49.06245 | -122.79724 | 4299 ft | 225 kts | 98° |
| 2026-05-03 22:14 | 49.06017 | -122.77379 | 3967 ft | 224 kts | 98° |
| 2026-05-03 22:14 | 49.05789 | -122.75045 | 3642 ft | 223 kts | 98° |
| 2026-05-03 22:15 | 49.05704 | -122.72714 | 3337 ft | 222 kts | 78° |
| 2026-05-03 22:15 | 49.06487 | -122.70786 | 3164 ft | 219 kts | 37° |
| 2026-05-03 22:15 | 49.07903 | -122.70023 | 3014 ft | 219 kts | 7° |
| 2026-05-03 22:15 | 49.09420 | -122.69776 | 3016 ft | 219 kts | 6° |
| 2026-05-03 22:16 | 49.10929 | -122.69555 | 2996 ft | 218 kts | 3° |
| 2026-05-03 22:16 | 49.12383 | -122.70043 | 2932 ft | 218 kts | 328° |
| 2026-05-03 22:16 | 49.13403 | -122.71715 | 3011 ft | 218 kts | 306° |
| 2026-05-03 22:16 | 49.14286 | -122.73604 | 2987 ft | 219 kts | 306° |
| 2026-05-03 22:17 | 49.15140 | -122.75520 | 2969 ft | 218 kts | 299° |
| 2026-05-03 22:17 | 49.15580 | -122.77629 | 2949 ft | 208 kts | 281° |
| 2026-05-03 22:17 | 49.15839 | -122.79816 | 2965 ft | 209 kts | 280° |
| 2026-05-03 22:17 | 49.16099 | -122.81996 | 2837 ft | 209 kts | 280° |
| 2026-05-03 22:18 | 49.16350 | -122.84112 | 2688 ft | 195 kts | 280° |
| 2026-05-03 22:18 | 49.16577 | -122.86044 | 2564 ft | 174 kts | 280° |
| 2026-05-03 22:18 | 49.16790 | -122.87853 | 2448 ft | 174 kts | 281° |
| 2026-05-03 22:18 | 49.17003 | -122.89663 | 2351 ft | 174 kts | 281° |
| 2026-05-03 22:19 | 49.17215 | -122.91473 | 2256 ft | 172 kts | 281° |
| 2026-05-03 22:19 | 49.17413 | -122.93168 | 2110 ft | 152 kts | 281° |
| 2026-05-03 22:19 | 49.17595 | -122.94726 | 1964 ft | 149 kts | 281° |
| 2026-05-03 22:19 | 49.17776 | -122.96266 | 2017 ft | 146 kts | 281° |
| 2026-05-03 22:20 | 49.17952 | -122.97776 | 1975 ft | 144 kts | 280° |
| 2026-05-03 22:20 | 49.18124 | -122.99272 | 2002 ft | 143 kts | 281° |
| 2026-05-03 22:20 | 49.18300 | -123.00773 | 1984 ft | 144 kts | 281° |
| 2026-05-03 22:20 | 49.18475 | -123.02286 | 1796 ft | 145 kts | 281° |
| 2026-05-03 22:21 | 49.18650 | -123.03806 | 1611 ft | 144 kts | 281° |
| 2026-05-03 22:21 | 49.18819 | -123.05270 | 1428 ft | 135 kts | 281° |
| 2026-05-03 22:21 | 49.18980 | -123.06660 | 1241 ft | 133 kts | 281° |
| 2026-05-03 22:21 | 49.19141 | -123.08057 | 1070 ft | 134 kts | 281° |
| 2026-05-03 22:22 | 49.19302 | -123.09455 | 892 ft | 134 kts | 281° |
| 2026-05-03 22:22 | 49.19462 | -123.10848 | 713 ft | 134 kts | 281° |
| 2026-05-03 22:22 | 49.19621 | -123.12239 | 535 ft | 133 kts | 281° |
| 2026-05-03 22:22 | 49.19781 | -123.13637 | 357 ft | 133 kts | 281° |
| 2026-05-03 22:23 | 49.19939 | -123.15019 | 182 ft | 132 kts | 281° |
| 2026-05-03 22:23 | 49.20099 | -123.16390 | 51 ft | 131 kts | 281° |
| 2026-05-03 22:23 | 49.20243 | -123.17664 | 16 ft | 103 kts | 280° |
| 2026-05-03 22:23 | 49.20339 | -123.18563 | 16 ft | 61 kts | 280° |
| 2026-05-03 22:24 | 49.20383 | -123.18944 | 16 ft | 27 kts | 281° |
| 2026-05-03 22:24 | 49.20395 | -123.19161 | 16 ft | 18 kts | 264° |
| 2026-05-03 22:24 | 49.20358 | -123.19350 | 16 ft | 19 kts | 249° |
| 2026-05-03 22:24 | 49.20311 | -123.19536 | 16 ft | 14 kts | 250° |
| 2026-05-03 22:25 | 49.20300 | -123.19585 | 16 ft | 0 kts | 250° |
| 2026-05-03 22:25 | 49.20296 | -123.19597 | 16 ft | 4 kts | 239° |
| 2026-05-03 22:25 | 49.20288 | -123.19605 | 16 ft | 0 kts | 213° |
| 2026-05-03 22:25 | 49.20284 | -123.19607 | 16 ft | 2 kts | 205° |
| 2026-05-03 22:26 | 49.20272 | -123.19604 | 16 ft | 1 kts | 164° |
| 2026-05-03 22:26 | 49.20251 | -123.19570 | 16 ft | 9 kts | 119° |
| 2026-05-03 22:26 | 49.20231 | -123.19457 | 16 ft | 12 kts | 100° |
| 2026-05-03 22:26 | 49.20217 | -123.19334 | 16 ft | 11 kts | 100° |
| 2026-05-03 22:27 | 49.20204 | -123.19218 | 16 ft | 11 kts | 100° |
| 2026-05-03 22:27 | 49.20190 | -123.19103 | 16 ft | 12 kts | 100° |
| 2026-05-03 22:27 | 49.20174 | -123.18964 | 16 ft | 15 kts | 100° |
| 2026-05-03 22:27 | 49.20155 | -123.18798 | 16 ft | 17 kts | 100° |
| 2026-05-03 22:28 | 49.20136 | -123.18631 | 16 ft | 12 kts | 100° |
| 2026-05-03 22:28 | 49.20100 | -123.18513 | 16 ft | 12 kts | 137° |
| 2026-05-03 22:28 | 49.20051 | -123.18429 | 16 ft | 8 kts | 108° |
| 2026-05-03 22:28 | 49.20034 | -123.18369 | 16 ft | 4 kts | 136° |
| 2026-05-03 22:29 | 49.20022 | -123.18362 | 16 ft | 2 kts | 165° |
| 2026-05-03 22:29 | 49.20005 | -123.18363 | 16 ft | 3 kts | 189° |
| 2026-05-03 22:29 | 49.19980 | -123.18369 | 16 ft | 3 kts | 190° |
| 2026-05-03 22:29 | 49.19975 | -123.18371 | 16 ft | 0 kts | 189° |
| 2026-05-03 22:30 | 49.19972 | -123.18371 | 16 ft | 0 kts | 189° |